createdAt,value
2017-07-04T00:01:10.820Z,66.00
2017-07-04T00:03:38.438Z,66.63
2017-07-04T00:06:06.025Z,66.49
2017-07-04T00:08:33.653Z,66.56
2017-07-04T00:11:01.409Z,66.28
2017-07-04T00:13:29.371Z,66.12
2017-07-04T00:15:56.977Z,65.93
2017-07-04T00:18:24.720Z,65.94
2017-07-04T00:20:52.318Z,65.69
2017-07-04T00:23:19.955Z,65.58
2017-07-04T00:25:47.718Z,65.34
2017-07-04T00:28:15.310Z,65.86
2017-07-04T00:30:42.929Z,65.04
2017-07-04T00:33:10.704Z,65.05
2017-07-04T00:35:38.277Z,65.12
2017-07-04T00:38:05.854Z,65.36
2017-07-04T00:40:33.688Z,65.44
2017-07-04T00:43:01.428Z,65.61
2017-07-04T00:45:29.023Z,65.50
2017-07-04T00:47:56.586Z,66.40
2017-07-04T00:50:24.108Z,66.29
2017-07-04T00:52:51.739Z,66.20
2017-07-04T00:55:19.282Z,65.66
2017-07-04T00:57:46.862Z,65.76
2017-07-04T01:00:14.651Z,65.68
2017-07-04T01:02:42.388Z,65.53
2017-07-04T01:05:09.956Z,66.04
2017-07-04T01:07:37.586Z,66.10
2017-07-04T01:10:05.158Z,66.02
2017-07-04T01:12:32.688Z,66.80
2017-07-04T01:15:00.312Z,66.90
2017-07-04T01:17:27.873Z,67.20
2017-07-04T01:19:55.463Z,66.59
2017-07-04T01:22:23.072Z,66.63
2017-07-04T01:24:53.243Z,66.37
2017-07-04T01:27:21.580Z,65.89
2017-07-04T01:30:00.946Z,65.91
2017-07-04T01:32:28.786Z,66.62
2017-07-04T01:34:56.333Z,65.97
2017-07-04T01:37:23.882Z,66.67
2017-07-04T01:39:57.026Z,66.24
2017-07-04T01:42:24.631Z,65.69
2017-07-04T01:44:52.171Z,66.13
2017-07-04T01:47:19.818Z,66.17
2017-07-04T01:49:47.365Z,65.40
2017-07-04T01:52:14.938Z,65.50
2017-07-04T01:54:42.505Z,65.89
2017-07-04T01:57:10.069Z,65.72
2017-07-04T01:59:37.817Z,65.46
2017-07-04T02:02:05.480Z,64.68
2017-07-04T02:04:33.026Z,64.65
2017-07-04T02:07:00.606Z,64.36
2017-07-04T02:09:28.193Z,64.93
2017-07-04T02:11:55.826Z,64.44
2017-07-04T02:14:23.354Z,64.60
2017-07-04T02:16:51.169Z,64.51
2017-07-04T02:19:18.903Z,64.82
2017-07-04T02:21:46.771Z,64.32
2017-07-04T02:24:14.353Z,64.29
2017-07-04T02:26:41.922Z,64.56
2017-07-04T02:29:09.465Z,63.94
2017-07-04T02:31:37.094Z,64.33
2017-07-04T02:34:04.864Z,64.88
2017-07-04T02:36:32.625Z,64.66
2017-07-04T02:39:00.202Z,64.59
2017-07-04T02:41:27.744Z,64.41
2017-07-04T02:43:55.291Z,63.91
2017-07-04T02:46:23.152Z,64.14
2017-07-04T02:48:50.771Z,63.64
2017-07-04T02:51:19.017Z,63.74
2017-07-04T02:53:46.598Z,63.68
2017-07-04T02:56:14.152Z,63.49
2017-07-04T02:58:41.943Z,63.67
2017-07-04T03:01:09.524Z,64.05
2017-07-04T03:03:37.102Z,63.73
2017-07-04T03:06:04.840Z,63.26
2017-07-04T03:08:32.449Z,63.37
2017-07-04T03:11:00.090Z,63.78
2017-07-04T03:13:27.688Z,63.36
2017-07-04T03:15:55.280Z,63.33
2017-07-04T03:18:22.878Z,63.49
2017-07-04T03:20:50.664Z,62.93
2017-07-04T03:23:18.285Z,62.77
2017-07-04T03:25:45.957Z,62.50
2017-07-04T03:28:13.702Z,62.29
2017-07-04T03:30:41.289Z,61.78
2017-07-04T03:33:09.110Z,62.21
2017-07-04T03:35:36.922Z,62.48
2017-07-04T03:38:04.530Z,61.21
2017-07-04T03:40:32.327Z,61.52
2017-07-04T03:42:59.850Z,61.59
2017-07-04T03:45:27.429Z,61.18
2017-07-04T03:47:55.913Z,60.56
2017-07-04T03:50:23.438Z,60.24
2017-07-04T03:52:51.021Z,60.59
2017-07-04T03:55:18.548Z,60.50
2017-07-04T03:57:46.074Z,60.24
2017-07-04T04:00:13.716Z,59.71
2017-07-04T04:02:41.313Z,60.20
2017-07-04T04:05:08.876Z,59.56
2017-07-04T04:07:36.472Z,59.56
2017-07-04T04:10:04.055Z,59.50
2017-07-04T04:12:31.842Z,60.18
2017-07-04T04:14:59.427Z,58.65
2017-07-04T04:17:27.013Z,59.31
2017-07-04T04:19:54.872Z,59.85
2017-07-04T04:22:22.447Z,59.88
2017-07-04T04:24:50.225Z,59.32
2017-07-04T04:27:17.788Z,59.00
2017-07-04T04:29:45.374Z,59.30
2017-07-04T04:32:12.983Z,59.22
2017-07-04T04:34:40.542Z,54.98
2017-07-04T04:37:08.098Z,52.39
2017-07-04T04:39:35.690Z,51.07
2017-07-04T04:42:03.274Z,50.20
2017-07-04T04:44:30.820Z,48.81
2017-07-04T04:46:58.428Z,48.25
2017-07-04T04:49:25.998Z,47.93
2017-07-04T04:51:53.558Z,47.02
2017-07-04T04:54:21.144Z,47.16
2017-07-04T04:56:48.739Z,47.28
2017-07-04T04:59:16.324Z,47.36
2017-07-04T05:01:43.918Z,47.35
2017-07-04T05:04:11.426Z,48.07
2017-07-04T05:06:38.969Z,50.67
2017-07-04T05:09:06.572Z,53.04
2017-07-04T05:11:34.146Z,53.52
2017-07-04T05:14:01.661Z,53.25
2017-07-04T05:16:29.218Z,53.77
2017-07-04T05:18:56.761Z,54.62
2017-07-04T05:21:24.306Z,55.32
2017-07-04T05:23:51.955Z,56.18
2017-07-04T05:26:19.503Z,55.18
2017-07-04T05:28:47.274Z,57.09
2017-07-04T05:31:14.852Z,55.89
2017-07-04T05:33:42.384Z,56.02
2017-07-04T05:36:10.145Z,56.93
2017-07-04T05:38:37.729Z,56.87
2017-07-04T05:41:05.286Z,56.75
2017-07-04T05:43:32.881Z,57.29
2017-07-04T05:46:00.493Z,57.38
2017-07-04T05:48:28.089Z,57.05
2017-07-04T05:50:55.614Z,56.22
2017-07-04T05:53:23.208Z,56.26
2017-07-04T05:55:50.818Z,57.46
2017-07-04T05:58:19.251Z,56.89
2017-07-04T06:00:46.851Z,56.35
2017-07-04T06:03:14.387Z,55.48
2017-07-04T06:05:41.909Z,56.70
2017-07-04T06:08:09.559Z,56.35
2017-07-04T06:10:37.305Z,57.29
2017-07-04T06:13:05.072Z,56.77
2017-07-04T06:15:32.656Z,55.33
2017-07-04T06:18:00.406Z,54.57
2017-07-04T06:20:27.982Z,55.29
2017-07-04T06:22:55.584Z,54.48
2017-07-04T06:25:23.154Z,54.88
2017-07-04T06:27:50.686Z,54.86
2017-07-04T06:30:18.372Z,54.71
2017-07-04T06:32:45.913Z,53.81
2017-07-04T06:35:13.535Z,52.92
2017-07-04T06:37:41.165Z,52.15
2017-07-04T06:40:08.918Z,52.13
2017-07-04T06:42:36.671Z,51.94
2017-07-04T06:45:04.258Z,52.44
2017-07-04T06:47:31.871Z,52.61
2017-07-04T06:49:59.715Z,51.38
2017-07-04T06:52:27.331Z,51.32
2017-07-04T06:54:54.935Z,51.42
2017-07-04T06:57:22.511Z,51.68
2017-07-04T06:59:50.101Z,51.01
2017-07-04T07:02:17.743Z,50.88
2017-07-04T07:04:45.318Z,50.46
2017-07-04T07:07:13.053Z,49.75
2017-07-04T07:09:40.692Z,50.17
2017-07-04T07:12:08.221Z,49.39
2017-07-04T07:14:35.736Z,49.08
2017-07-04T07:17:04.260Z,47.72
2017-07-04T07:19:31.839Z,47.93
2017-07-04T07:21:59.450Z,47.08
2017-07-04T07:24:27.026Z,47.44
2017-07-04T07:26:54.658Z,46.90
2017-07-04T07:29:22.205Z,49.04
2017-07-04T07:31:50.020Z,50.37
2017-07-04T07:34:17.627Z,47.92
2017-07-04T07:36:45.457Z,48.79
2017-07-04T07:39:13.097Z,48.39
2017-07-04T07:41:40.640Z,48.95
2017-07-04T07:44:08.231Z,48.91
2017-07-04T07:46:35.859Z,49.11
2017-07-04T07:49:03.651Z,46.51
2017-07-04T07:51:31.196Z,46.47
2017-07-04T07:53:58.783Z,45.52
2017-07-04T07:56:26.308Z,47.29
2017-07-04T07:58:53.826Z,47.75
2017-07-04T08:01:21.413Z,48.36
2017-07-04T08:03:48.977Z,48.84
2017-07-04T08:06:16.540Z,48.60
2017-07-04T08:08:44.331Z,48.19
2017-07-04T08:11:11.897Z,46.51
2017-07-04T08:13:39.519Z,47.57
2017-07-04T08:16:07.109Z,45.59
2017-07-04T08:18:34.680Z,45.35
2017-07-04T08:21:02.450Z,46.39
2017-07-04T08:23:30.022Z,47.38
2017-07-04T08:25:57.629Z,45.93
2017-07-04T08:28:25.175Z,45.75
2017-07-04T08:30:52.761Z,44.81
2017-07-04T08:33:21.462Z,44.69
2017-07-04T08:35:49.185Z,45.17
2017-07-04T08:38:16.769Z,44.48
2017-07-04T08:40:44.395Z,45.32
2017-07-04T08:43:11.949Z,45.03
2017-07-04T08:45:39.603Z,44.65
2017-07-04T08:48:07.370Z,42.96
2017-07-04T08:50:34.992Z,42.96
2017-07-04T08:53:02.592Z,42.39
2017-07-04T08:55:30.370Z,43.67
2017-07-04T08:57:57.953Z,43.90
2017-07-04T09:00:25.545Z,45.71
2017-07-04T09:02:53.096Z,44.82
2017-07-04T09:05:20.710Z,45.20
2017-07-04T09:07:48.283Z,44.22
2017-07-04T09:10:15.799Z,46.54
2017-07-04T09:12:43.381Z,45.70
2017-07-04T09:15:11.662Z,43.01
2017-07-04T09:17:39.209Z,42.25
2017-07-04T09:20:06.774Z,42.20
2017-07-04T09:22:34.362Z,41.63
2017-07-04T09:25:02.185Z,41.05
2017-07-04T09:27:29.724Z,42.10
2017-07-04T09:29:57.527Z,39.99
2017-07-04T09:32:25.115Z,39.87
2017-07-04T09:34:52.779Z,38.91
2017-07-04T09:37:20.360Z,37.92
2017-07-04T09:39:47.954Z,37.89
2017-07-04T09:42:15.777Z,37.82
2017-07-04T09:44:43.340Z,38.12
2017-07-04T09:47:10.932Z,38.52
2017-07-04T09:49:38.500Z,38.93
2017-07-04T09:52:06.040Z,38.17
2017-07-04T09:54:33.601Z,37.68
2017-07-04T09:57:01.226Z,38.79
2017-07-04T09:59:28.821Z,38.63
2017-07-04T10:01:56.441Z,38.21
2017-07-04T10:04:24.365Z,38.92
2017-07-04T10:06:51.876Z,39.14
2017-07-04T10:09:19.475Z,39.15
2017-07-04T10:11:47.024Z,38.39
2017-07-04T10:14:14.561Z,37.57
2017-07-04T10:16:42.499Z,38.11
2017-07-04T10:19:10.051Z,39.17
2017-07-04T10:21:37.790Z,39.10
2017-07-04T10:24:05.369Z,38.24
2017-07-04T10:26:33.106Z,38.41
2017-07-04T10:29:00.907Z,37.88
2017-07-04T10:31:28.508Z,36.87
2017-07-04T10:33:56.055Z,34.75
2017-07-04T10:36:23.630Z,34.43
2017-07-04T10:38:51.610Z,35.17
2017-07-04T10:41:19.197Z,36.09
2017-07-04T10:43:46.737Z,35.37
2017-07-04T10:46:14.344Z,35.20
2017-07-04T10:48:42.163Z,36.33
2017-07-04T10:51:09.732Z,35.71
2017-07-04T10:53:37.322Z,36.80
2017-07-04T10:56:04.887Z,36.89
2017-07-04T10:58:32.401Z,35.95
2017-07-04T11:01:00.021Z,36.43
2017-07-04T11:03:27.928Z,35.92
2017-07-04T11:05:55.487Z,35.43
2017-07-04T11:08:23.102Z,35.16
2017-07-04T11:10:50.634Z,33.67
2017-07-04T11:13:18.227Z,35.90
2017-07-04T11:15:45.854Z,35.94
2017-07-04T11:18:14.104Z,36.79
2017-07-04T11:20:41.691Z,37.73
2017-07-04T11:23:09.277Z,37.32
2017-07-04T11:25:36.869Z,38.31
2017-07-04T11:28:04.454Z,37.02
2017-07-04T11:30:32.433Z,36.85
2017-07-04T11:33:00.194Z,37.68
2017-07-04T11:35:27.932Z,36.55
2017-07-04T11:37:55.575Z,36.32
2017-07-04T11:40:23.112Z,36.33
2017-07-04T11:42:50.842Z,37.15
2017-07-04T11:45:18.474Z,36.25
2017-07-04T11:47:46.266Z,36.89
2017-07-04T11:50:13.858Z,36.83
2017-07-04T11:52:41.484Z,37.31
2017-07-04T11:55:09.069Z,38.02
2017-07-04T11:57:36.662Z,37.19
2017-07-04T12:00:08.757Z,38.14
2017-07-04T12:02:36.326Z,37.31
2017-07-04T12:05:03.940Z,36.95
2017-07-04T12:07:31.557Z,36.26
2017-07-04T12:09:59.357Z,35.09
2017-07-04T12:12:26.996Z,35.37
2017-07-04T12:14:54.688Z,35.30
2017-07-04T12:17:22.316Z,36.22
2017-07-04T12:19:49.892Z,35.84
2017-07-04T12:22:17.599Z,36.36
2017-07-04T12:24:45.252Z,36.50
2017-07-04T12:27:12.854Z,36.39
2017-07-04T12:29:40.512Z,35.09
2017-07-04T12:32:08.147Z,34.53
2017-07-04T12:34:35.699Z,34.99
2017-07-04T12:37:03.280Z,35.47
2017-07-04T12:39:30.879Z,36.05
2017-07-04T12:41:58.484Z,36.95
2017-07-04T12:44:26.069Z,35.71
2017-07-04T12:46:53.679Z,34.42
2017-07-04T12:49:21.305Z,35.18
2017-07-04T12:51:49.101Z,34.43
2017-07-04T12:54:16.740Z,33.64
2017-07-04T12:56:44.311Z,33.61
2017-07-04T12:59:11.904Z,33.43
2017-07-04T13:01:39.568Z,33.64
2017-07-04T13:04:07.189Z,34.32
2017-07-04T13:06:34.783Z,33.41
2017-07-04T13:09:03.585Z,33.58
2017-07-04T13:11:31.130Z,33.52
2017-07-04T13:13:58.971Z,33.29
2017-07-04T13:16:26.669Z,34.06
2017-07-04T13:18:54.241Z,33.72
2017-07-04T13:21:22.056Z,33.31
2017-07-04T13:23:49.878Z,33.28
2017-07-04T13:26:17.609Z,34.05
2017-07-04T13:28:45.749Z,34.38
2017-07-04T13:31:13.892Z,34.18
2017-07-04T13:33:41.481Z,34.54
2017-07-04T13:36:09.042Z,34.59
2017-07-04T13:38:36.749Z,33.54
2017-07-04T13:41:04.377Z,34.17
2017-07-04T13:43:31.998Z,33.75
2017-07-04T13:45:59.912Z,33.12
2017-07-04T13:48:28.136Z,32.95
2017-07-04T13:50:55.709Z,33.36
2017-07-04T13:53:23.381Z,34.19
2017-07-04T13:55:50.949Z,34.09
2017-07-04T13:58:18.495Z,33.08
2017-07-04T14:00:46.122Z,33.21
2017-07-04T14:03:13.788Z,33.34
2017-07-04T14:05:41.588Z,33.28
2017-07-04T14:08:09.232Z,32.79
2017-07-04T14:10:36.843Z,33.83
2017-07-04T14:13:04.449Z,33.55
2017-07-04T14:15:32.069Z,33.96
2017-07-04T14:17:59.693Z,33.65
2017-07-04T14:20:27.382Z,33.87
2017-07-04T14:22:54.999Z,33.73
2017-07-04T14:25:22.780Z,33.27
2017-07-04T14:27:50.347Z,33.02
2017-07-04T14:30:18.349Z,33.52
2017-07-04T14:32:45.984Z,33.72
2017-07-04T14:35:13.626Z,35.12
2017-07-04T14:37:41.251Z,33.91
2017-07-04T14:40:09.024Z,33.23
2017-07-04T14:42:36.621Z,32.92
2017-07-04T14:45:04.240Z,33.38
2017-07-04T14:47:32.938Z,33.03
2017-07-04T14:50:00.520Z,33.53
2017-07-04T14:52:28.244Z,32.69
2017-07-04T14:54:55.900Z,32.80
2017-07-04T14:57:23.690Z,32.47
2017-07-04T14:59:51.312Z,32.63
2017-07-04T15:02:19.388Z,32.71
2017-07-04T15:04:47.033Z,31.18
2017-07-04T15:07:14.822Z,32.38
2017-07-04T15:09:42.510Z,31.98
2017-07-04T15:12:10.101Z,32.02
2017-07-04T15:14:37.793Z,31.63
2017-07-04T15:17:05.409Z,32.05
2017-07-04T15:19:33.053Z,32.08
2017-07-04T15:22:00.665Z,31.93
2017-07-04T15:24:28.340Z,31.77
2017-07-04T15:26:55.913Z,31.68
2017-07-04T15:29:23.519Z,31.81
2017-07-04T15:31:51.147Z,31.62
2017-07-04T15:34:18.799Z,31.95
2017-07-04T15:36:46.544Z,31.83
2017-07-04T15:39:14.364Z,31.75
2017-07-04T15:41:41.988Z,31.78
2017-07-04T15:44:09.601Z,31.48
2017-07-04T15:46:37.257Z,31.72
2017-07-04T15:49:04.917Z,32.46
2017-07-04T15:51:32.519Z,31.60
2017-07-04T15:54:00.124Z,31.58
2017-07-04T15:56:28.293Z,31.51
2017-07-04T15:58:56.151Z,31.50
2017-07-04T16:01:23.808Z,31.99
2017-07-04T16:03:51.391Z,31.45
2017-07-04T16:06:19.557Z,31.63
2017-07-04T16:08:47.177Z,31.89
2017-07-04T16:11:14.757Z,32.21
2017-07-04T16:13:42.348Z,31.64
2017-07-04T16:16:09.953Z,31.78
2017-07-04T16:18:37.628Z,31.68
2017-07-04T16:21:05.281Z,31.73
2017-07-04T16:23:32.910Z,31.75
2017-07-04T16:26:01.173Z,31.68
2017-07-04T16:28:28.771Z,31.70
2017-07-04T16:30:56.497Z,31.66
2017-07-04T16:33:24.695Z,31.99
2017-07-04T16:35:52.304Z,31.13
2017-07-04T16:38:19.902Z,31.17
2017-07-04T16:40:47.439Z,31.76
2017-07-04T16:43:15.034Z,31.40
2017-07-04T16:45:42.635Z,31.29
2017-07-04T16:48:10.301Z,30.74
2017-07-04T16:50:38.286Z,31.20
2017-07-04T16:53:05.996Z,31.10
2017-07-04T16:55:34.159Z,31.24
2017-07-04T16:58:01.804Z,32.00
2017-07-04T17:00:29.498Z,37.09
2017-07-04T17:02:57.913Z,38.33
2017-07-04T17:05:25.459Z,39.19
2017-07-04T17:07:53.137Z,39.78
2017-07-04T17:10:20.719Z,40.60
2017-07-04T17:12:48.302Z,40.84
2017-07-04T17:15:15.908Z,40.71
2017-07-04T17:17:43.627Z,41.22
2017-07-04T17:20:11.252Z,41.68
2017-07-04T17:22:38.937Z,41.60
2017-07-04T17:25:06.544Z,42.24
2017-07-04T17:27:34.965Z,41.96
2017-07-04T17:30:09.906Z,42.02
2017-07-04T17:32:37.554Z,42.15
2017-07-04T17:35:05.171Z,42.61
2017-07-04T17:37:33.641Z,42.13
2017-07-04T17:40:01.266Z,42.48
2017-07-04T17:42:28.918Z,42.46
2017-07-04T17:44:56.950Z,43.21
2017-07-04T17:47:24.552Z,43.43
2017-07-04T17:49:52.176Z,43.83
2017-07-04T17:52:19.691Z,43.78
2017-07-04T17:54:47.574Z,44.06
2017-07-04T17:57:15.147Z,44.07
2017-07-04T17:59:42.715Z,44.16
2017-07-04T18:02:10.343Z,44.64
2017-07-04T18:04:37.904Z,44.80
2017-07-04T18:07:05.485Z,44.65
2017-07-04T18:09:33.134Z,45.24
2017-07-04T18:12:00.924Z,44.83
2017-07-04T18:14:28.687Z,44.38
2017-07-04T18:16:56.313Z,45.60
2017-07-04T18:19:23.928Z,45.40
2017-07-04T18:21:51.475Z,45.60
2017-07-04T18:24:19.099Z,45.52
2017-07-04T18:26:46.983Z,45.43
2017-07-04T18:29:14.591Z,45.33
2017-07-04T18:31:42.173Z,45.43
2017-07-04T18:34:09.794Z,44.95
2017-07-04T18:36:37.389Z,45.30
2017-07-04T18:39:05.023Z,45.73
2017-07-04T18:41:32.901Z,46.00
2017-07-04T18:44:00.539Z,45.45
2017-07-04T18:46:28.236Z,45.17
2017-07-04T18:48:55.855Z,44.52
2017-07-04T18:51:23.631Z,44.73
2017-07-04T18:53:51.921Z,44.05
2017-07-04T18:56:19.509Z,44.34
2017-07-04T18:58:47.074Z,43.59
2017-07-04T19:01:14.654Z,44.38
2017-07-04T19:03:42.234Z,44.55
2017-07-04T19:06:09.976Z,43.92
2017-07-04T19:08:37.625Z,44.46
2017-07-04T19:11:05.463Z,45.12
2017-07-04T19:13:33.087Z,45.37
2017-07-04T19:16:00.657Z,45.33
2017-07-04T19:18:28.340Z,45.39
2017-07-04T19:20:55.899Z,45.48
2017-07-04T19:23:23.532Z,46.01
2017-07-04T19:25:51.126Z,45.49
2017-07-04T19:28:18.725Z,45.82
2017-07-04T19:30:46.347Z,45.94
2017-07-04T19:33:13.894Z,45.50
2017-07-04T19:35:41.485Z,45.74
2017-07-04T19:38:09.392Z,45.36
2017-07-04T19:40:37.189Z,44.39
2017-07-04T19:43:05.124Z,45.10
2017-07-04T19:45:33.532Z,45.35
2017-07-04T19:48:01.479Z,44.67
2017-07-04T19:50:29.358Z,44.91
2017-07-04T19:52:56.992Z,44.26
2017-07-04T19:55:25.171Z,44.31
2017-07-04T19:57:53.115Z,44.78
2017-07-04T20:00:20.713Z,45.70
2017-07-04T20:02:48.381Z,46.37
2017-07-04T20:05:16.896Z,46.60
2017-07-04T20:07:44.601Z,46.97
2017-07-04T20:10:12.176Z,47.24
2017-07-04T20:12:39.817Z,47.70
2017-07-04T20:15:07.415Z,47.81
2017-07-04T20:17:35.016Z,47.80
2017-07-04T20:20:02.626Z,47.35
2017-07-04T20:22:30.221Z,47.55
2017-07-04T20:24:57.973Z,47.62
2017-07-04T20:27:25.728Z,48.04
2017-07-04T20:29:54.345Z,47.77
2017-07-04T20:32:21.944Z,48.05
2017-07-04T20:34:50.370Z,47.90
2017-07-04T20:37:18.000Z,48.28
2017-07-04T20:39:45.627Z,47.95
2017-07-04T20:42:14.190Z,48.10
2017-07-04T20:44:41.810Z,48.00
2017-07-04T20:47:09.428Z,47.89
2017-07-04T20:49:37.207Z,48.37
2017-07-04T20:52:04.831Z,48.84
2017-07-04T20:54:32.520Z,49.53
2017-07-04T20:57:00.073Z,49.21
2017-07-04T20:59:27.711Z,49.56
2017-07-04T21:01:55.322Z,49.62
2017-07-04T21:04:22.978Z,49.79
2017-07-04T21:06:50.770Z,49.84
2017-07-04T21:09:18.407Z,50.12
2017-07-04T21:11:46.008Z,50.28
2017-07-04T21:14:13.676Z,50.67
2017-07-04T21:16:42.079Z,51.12
2017-07-04T21:19:09.663Z,50.95
2017-07-04T21:21:37.378Z,50.97
2017-07-04T21:24:04.993Z,51.64
2017-07-04T21:26:32.540Z,52.96
2017-07-04T21:29:00.117Z,52.97
2017-07-04T21:31:27.720Z,52.29
2017-07-04T21:33:55.580Z,52.24
2017-07-04T21:36:23.211Z,52.00
2017-07-04T21:38:50.805Z,51.93
2017-07-04T21:41:18.368Z,52.40
2017-07-04T21:43:47.256Z,52.35
2017-07-04T21:46:14.900Z,51.92
2017-07-04T21:48:43.560Z,52.91
2017-07-04T21:51:11.069Z,52.49
2017-07-04T21:53:39.515Z,52.62
2017-07-04T21:56:07.350Z,52.77
2017-07-04T21:58:35.044Z,52.91
2017-07-04T22:01:02.639Z,52.94
2017-07-04T22:03:30.219Z,53.47
2017-07-04T22:05:57.809Z,53.91
2017-07-04T22:08:25.388Z,54.06
2017-07-04T22:10:52.977Z,53.77
2017-07-04T22:13:20.498Z,53.29
2017-07-04T22:15:48.126Z,53.50
2017-07-04T22:18:15.914Z,53.82
2017-07-04T22:20:43.465Z,54.23
2017-07-04T22:23:11.073Z,54.01
2017-07-04T22:25:38.936Z,53.84
2017-07-04T22:28:06.722Z,53.99
2017-07-04T22:30:34.312Z,53.99
2017-07-04T22:33:01.905Z,53.93
2017-07-04T22:35:29.713Z,53.98
2017-07-04T22:37:57.314Z,53.20
2017-07-04T22:40:24.931Z,54.52
2017-07-04T22:42:52.539Z,53.21
2017-07-04T22:45:20.132Z,52.77
2017-07-04T22:47:47.883Z,52.82
2017-07-04T22:50:15.456Z,52.62
2017-07-04T22:52:43.050Z,52.11
2017-07-04T22:55:10.701Z,52.07
2017-07-04T22:57:38.453Z,51.39
2017-07-04T23:00:07.178Z,51.18
2017-07-04T23:02:34.790Z,51.38
2017-07-04T23:05:02.528Z,51.42
2017-07-04T23:07:30.136Z,51.56
2017-07-04T23:09:57.898Z,51.91
2017-07-04T23:12:26.223Z,51.72
2017-07-04T23:14:53.803Z,51.53
2017-07-04T23:17:21.523Z,51.77
2017-07-04T23:19:49.322Z,51.71
2017-07-04T23:22:17.218Z,52.34
2017-07-04T23:24:45.244Z,52.59
2017-07-04T23:27:12.809Z,52.85
2017-07-04T23:29:40.469Z,53.20
2017-07-04T23:32:08.092Z,53.61
2017-07-04T23:34:35.601Z,53.65
2017-07-04T23:37:03.207Z,53.38
2017-07-04T23:39:30.843Z,53.28
2017-07-04T23:41:58.413Z,53.67
2017-07-04T23:44:26.899Z,53.39
2017-07-04T23:46:54.510Z,53.55
2017-07-04T23:49:22.103Z,54.32
2017-07-04T23:51:49.685Z,54.48
2017-07-04T23:54:17.270Z,54.29
2017-07-04T23:56:44.849Z,54.73
2017-07-04T23:59:12.363Z,54.94
